Time,TemperatureF,DewpointF,PressureIn,WindDirection,WindDirectionDegrees,WindSpeedMPH,WindSpeedGustMPH,Humidity,HourlyPrecipIn,Conditions,Clouds,dailyrainin,SolarRadiationWatts/m^2,SoftwareType,DateUTC
2013-03-11 00:00:00,33.7,30.5,30.34,West,265,0.0,3.0,88,0.00,,FEW110,0.00,0.00,VWS V14.01,2013-03-11 04:00:00,
2013-03-11 00:05:00,33.7,30.5,30.33,West,265,0.0,2.0,88,0.00,,CLR,0.00,0.00,VWS V14.01,2013-03-11 04:05:00,
2013-03-11 00:10:00,33.6,30.4,30.33,WSW,256,0.0,0.0,88,0.00,,CLR,0.00,0.00,VWS V14.01,2013-03-11 04:10:00,
2013-03-11 00:15:00,33.5,30.6,30.32,WSW,249,0.0,1.0,89,0.00,,CLR,0.00,0.00,VWS V14.01,2013-03-11 04:15:00,
2013-03-11 00:20:00,33.5,30.6,30.31,SE,138,0.0,1.0,89,0.00,,CLR,0.00,0.00,VWS V14.01,2013-03-11 04:20:00,
2013-03-11 00:25:00,33.5,30.6,30.31,South,182,0.0,5.0,89,0.00,,CLR,0.00,0.00,VWS V14.01,2013-03-11 04:25:00,
2013-03-11 00:30:00,33.5,30.6,30.32,SSE,168,1.0,2.0,89,0.00,,CLR,0.00,0.00,VWS V14.01,2013-03-11 04:30:00,
2013-03-11 00:35:00,33.4,30.5,30.32,SW,221,1.0,2.0,89,0.00,,CLR,0.00,0.00,VWS V14.01,2013-03-11 04:35:00,
2013-03-11 00:40:00,33.5,30.6,30.31,SSW,193,0.0,0.0,89,0.00,,CLR,0.00,0.00,VWS V14.01,2013-03-11 04:40:00,
2013-03-11 00:45:00,33.6,30.7,30.32,SSE,150,0.0,3.0,89,0.00,,CLR,0.00,0.00,VWS V14.01,2013-03-11 04:45:00,
2013-03-11 00:50:00,33.6,30.7,30.32,SE,146,0.0,1.0,89,0.00,,CLR,0.00,0.00,VWS V14.01,2013-03-11 04:50:00,
2013-03-11 00:55:00,33.6,30.7,30.32,South,179,0.0,3.0,89,0.00,,CLR,0.00,0.00,VWS V14.01,2013-03-11 04:55:00,
2013-03-11 01:00:00,33.5,30.6,30.32,South,179,0.0,0.0,89,0.00,,CLR,0.00,0.00,VWS V14.01,2013-03-11 05:00:00,
2013-03-11 01:05:00,33.4,30.5,30.33,SSW,205,0.0,2.0,89,0.00,,CLR,0.00,0.00,VWS V14.01,2013-03-11 05:05:00,
2013-03-11 01:10:00,33.3,30.4,30.34,SSW,205,0.0,0.0,89,0.00,,CLR,0.00,0.00,VWS V14.01,2013-03-11 05:10:00,
2013-03-11 01:15:00,33.2,30.3,30.34,SSW,205,0.0,1.0,89,0.00,,CLR,0.00,0.00,VWS V14.01,2013-03-11 05:15:00,
2013-03-11 01:20:00,33.1,30.2,30.33,SSW,205,0.0,0.0,89,0.00,,CLR,0.00,0.00,VWS V14.01,2013-03-11 05:20:00,
2013-03-11 01:25:00,32.9,30.0,30.33,SSW,205,0.0,0.0,89,0.00,,CLR,0.00,0.00,VWS V14.01,2013-03-11 05:25:00,
2013-03-11 01:30:00,32.7,30.1,30.33,SSW,205,0.0,0.0,90,0.00,,CLR,0.00,0.00,VWS V14.01,2013-03-11 05:30:00,
2013-03-11 01:35:00,32.6,30.0,30.33,SSW,206,1.0,3.0,90,0.00,,CLR,0.00,0.00,VWS V14.01,2013-03-11 05:35:00,
2013-03-11 01:40:00,32.5,29.9,30.33,SSW,205,0.0,1.0,90,0.00,,CLR,0.00,0.00,VWS V14.01,2013-03-11 05:40:00,
2013-03-11 01:45:00,32.7,30.4,30.33,South,171,0.0,3.0,91,0.00,,CLR,0.00,0.00,VWS V14.01,2013-03-11 05:45:00,
2013-03-11 01:50:00,32.8,30.5,30.33,SE,142,0.0,0.0,91,0.00,,CLR,0.00,0.00,VWS V14.01,2013-03-11 05:50:00,
2013-03-11 01:55:00,32.8,30.5,30.33,SE,142,0.0,0.0,91,0.00,,CLR,0.00,0.00,VWS V14.01,2013-03-11 05:55:00,
2013-03-11 02:00:00,32.7,30.4,30.32,South,173,0.0,0.0,91,0.00,,CLR,0.00,0.00,VWS V14.01,2013-03-11 06:00:00,
2013-03-11 02:05:00,32.8,30.5,30.33,South,173,0.0,2.0,91,0.00,,CLR,0.00,0.00,VWS V14.01,2013-03-11 06:05:00,
2013-03-11 02:11:00,32.8,30.5,30.33,SSE,167,0.0,0.0,91,0.00,,CLR,0.00,0.00,VWS V14.01,2013-03-11 06:11:00,
2013-03-11 02:16:00,32.7,30.4,30.33,SSE,167,0.0,0.0,91,0.00,,CLR,0.00,0.00,VWS V14.01,2013-03-11 06:16:00,
2013-03-11 02:21:00,32.6,30.3,30.33,SSE,167,0.0,0.0,91,0.00,,CLR,0.00,0.00,VWS V14.01,2013-03-11 06:21:00,
2013-03-11 02:26:00,32.6,30.3,30.33,SSE,167,0.0,0.0,91,0.00,,CLR,0.00,0.00,VWS V14.01,2013-03-11 06:26:00,
2013-03-11 02:31:00,32.5,30.2,30.32,SSE,167,0.0,0.0,91,0.00,,CLR,0.00,0.00,VWS V14.01,2013-03-11 06:31:00,
2013-03-11 02:36:00,32.4,30.1,30.32,SSW,193,0.0,3.0,91,0.00,,CLR,0.00,0.00,VWS V14.01,2013-03-11 06:36:00,
2013-03-11 02:41:00,32.4,30.1,30.32,South,182,0.0,1.0,91,0.00,,CLR,0.00,0.00,VWS V14.01,2013-03-11 06:41:00,
2013-03-11 02:46:00,32.5,30.2,30.32,South,181,0.0,2.0,91,0.00,,CLR,0.00,0.00,VWS V14.01,2013-03-11 06:46:00,
2013-03-11 02:51:00,32.5,30.2,30.32,South,181,0.0,2.0,91,0.00,,CLR,0.00,0.00,VWS V14.01,2013-03-11 06:51:00,
2013-03-11 02:56:00,32.5,30.2,30.31,South,181,1.0,2.0,91,0.00,,CLR,0.00,0.00,VWS V14.01,2013-03-11 06:56:00,
2013-03-11 03:01:00,32.4,30.1,30.30,SE,127,1.0,2.0,91,0.00,,CLR,0.00,0.00,VWS V14.01,2013-03-11 07:01:00,
2013-03-11 03:06:00,32.3,30.0,30.30,SSW,194,0.0,2.0,91,0.00,,SCT110,0.00,0.00,VWS V14.01,2013-03-11 07:06:00,
2013-03-11 03:11:00,32.2,29.9,30.29,SSW,194,0.0,2.0,91,0.00,,SCT110,0.00,0.00,VWS V14.01,2013-03-11 07:11:00,
2013-03-11 03:16:00,32.3,30.2,30.29,East,101,0.0,3.0,92,0.00,,SCT110,0.00,0.00,VWS V14.01,2013-03-11 07:16:00,
2013-03-11 03:21:00,32.3,30.2,30.29,SE,136,0.0,0.0,92,0.00,,SCT110,0.00,0.00,VWS V14.01,2013-03-11 07:21:00,
2013-03-11 03:26:00,32.3,30.2,30.29,South,175,0.0,4.0,92,0.00,,SCT110,0.00,0.00,VWS V14.01,2013-03-11 07:26:00,
2013-03-11 03:31:00,32.2,30.1,30.28,South,175,0.0,3.0,92,0.00,,SCT110,0.00,0.00,VWS V14.01,2013-03-11 07:31:00,
2013-03-11 03:36:00,32.1,30.0,30.28,South,187,0.0,3.0,92,0.00,,SCT110,0.00,0.00,VWS V14.01,2013-03-11 07:36:00,
2013-03-11 03:42:00,32.1,30.0,30.28,SW,217,0.0,1.0,92,0.00,,SCT110,0.00,0.00,VWS V14.01,2013-03-11 07:42:00,
2013-03-11 03:47:00,32.1,30.0,30.29,SW,217,1.0,2.0,92,0.00,,SCT110,0.00,0.00,VWS V14.01,2013-03-11 07:47:00,
2013-03-11 03:52:00,32.1,30.0,30.28,SSE,167,0.0,3.0,92,0.00,,SCT110,0.00,0.00,VWS V14.01,2013-03-11 07:52:00,
2013-03-11 03:57:00,32.0,29.9,30.28,SSE,167,1.0,3.0,92,0.00,,SCT110,0.00,0.00,VWS V14.01,2013-03-11 07:57:00,
2013-03-11 04:02:00,31.8,29.8,30.29,SSE,167,0.0,1.0,92,0.00,,SCT110,0.00,0.00,VWS V14.01,2013-03-11 08:02:00,
2013-03-11 04:07:00,31.7,29.6,30.29,SSE,167,0.0,2.0,92,0.00,,CLR,0.00,0.00,VWS V14.01,2013-03-11 08:07:00,
2013-03-11 04:12:00,31.6,29.5,30.28,SSE,167,0.0,2.0,92,0.00,,CLR,0.00,0.00,VWS V14.01,2013-03-11 08:12:00,
2013-03-11 04:17:00,31.6,29.5,30.29,SSE,167,0.0,2.0,92,0.00,,CLR,0.00,0.00,VWS V14.01,2013-03-11 08:17:00,
2013-03-11 04:22:00,31.5,29.7,30.29,SW,216,0.0,3.0,93,0.00,,CLR,0.00,0.00,VWS V14.01,2013-03-11 08:22:00,
2013-03-11 04:27:00,31.4,29.6,30.28,SW,216,0.0,3.0,93,0.00,,CLR,0.00,0.00,VWS V14.01,2013-03-11 08:27:00,
2013-03-11 04:32:00,31.3,29.5,30.28,SW,216,0.0,1.0,93,0.00,,CLR,0.00,0.00,VWS V14.01,2013-03-11 08:32:00,
2013-03-11 04:37:00,31.2,29.4,30.28,SW,216,0.0,2.0,93,0.00,,CLR,0.00,0.00,VWS V14.01,2013-03-11 08:37:00,
2013-03-11 04:42:00,31.2,29.4,30.28,SSW,202,1.0,2.0,93,0.00,,CLR,0.00,0.00,VWS V14.01,2013-03-11 08:42:00,
2013-03-11 04:47:00,31.3,29.5,30.28,South,173,2.0,3.0,93,0.00,,CLR,0.00,0.00,VWS V14.01,2013-03-11 08:47:00,
2013-03-11 04:52:00,31.4,29.6,30.28,South,174,0.0,1.0,93,0.00,,CLR,0.00,0.00,VWS V14.01,2013-03-11 08:52:00,
2013-03-11 04:57:00,31.4,29.6,30.27,South,174,0.0,2.0,93,0.00,,CLR,0.00,0.00,VWS V14.01,2013-03-11 08:57:00,
2013-03-11 05:02:00,31.5,29.7,30.27,South,174,0.0,1.0,93,0.00,,CLR,0.00,0.00,VWS V14.01,2013-03-11 09:02:00,
2013-03-11 05:07:00,31.6,29.8,30.27,SSE,162,2.0,3.0,93,0.00,,CLR,0.00,0.00,VWS V14.01,2013-03-11 09:07:00,
2013-03-11 05:12:00,31.7,30.2,30.27,SE,128,0.0,1.0,94,0.00,,CLR,0.00,0.00,VWS V14.01,2013-03-11 09:12:00,
2013-03-11 05:18:00,31.9,30.4,30.27,South,182,0.0,3.0,94,0.00,,CLR,0.00,0.00,VWS V14.01,2013-03-11 09:18:00,
2013-03-11 05:23:00,31.9,30.4,30.26,South,182,0.0,1.0,94,0.00,,CLR,0.00,0.00,VWS V14.01,2013-03-11 09:23:00,
2013-03-11 05:28:00,31.9,30.4,30.26,SSE,163,0.0,3.0,94,0.00,,CLR,0.00,0.00,VWS V14.01,2013-03-11 09:28:00,
2013-03-11 05:33:00,31.9,30.4,30.26,SSE,163,0.0,0.0,94,0.00,,CLR,0.00,0.00,VWS V14.01,2013-03-11 09:33:00,
2013-03-11 05:38:00,31.9,30.4,30.27,SSE,163,0.0,0.0,94,0.00,,CLR,0.00,0.00,VWS V14.01,2013-03-11 09:38:00,
2013-03-11 05:43:00,32.0,30.5,30.26,South,175,0.0,3.0,94,0.00,,CLR,0.00,0.00,VWS V14.01,2013-03-11 09:43:00,
2013-03-11 05:48:00,32.1,30.6,30.27,WSW,251,1.0,5.0,94,0.00,,CLR,0.00,0.00,VWS V14.01,2013-03-11 09:48:00,
2013-03-11 05:53:00,32.3,30.8,30.27,SSW,211,0.0,1.0,94,0.00,,CLR,0.00,0.00,VWS V14.01,2013-03-11 09:53:00,
2013-03-11 05:58:00,32.4,30.6,30.27,SSW,211,1.0,2.0,93,0.00,,CLR,0.00,0.00,VWS V14.01,2013-03-11 09:58:00,
2013-03-11 06:03:00,32.4,30.6,30.27,SW,218,0.0,5.0,93,0.00,,CLR,0.00,0.00,VWS V14.01,2013-03-11 10:03:00,
2013-03-11 06:08:00,32.4,30.6,30.27,SW,227,0.0,5.0,93,0.00,,CLR,0.00,0.00,VWS V14.01,2013-03-11 10:08:00,
2013-03-11 06:13:00,32.4,30.6,30.28,SW,225,0.0,3.0,93,0.00,,CLR,0.00,0.00,VWS V14.01,2013-03-11 10:13:00,
2013-03-11 06:18:00,32.4,30.6,30.28,SSW,204,1.0,3.0,93,0.00,,CLR,0.00,0.00,VWS V14.01,2013-03-11 10:18:00,
2013-03-11 06:23:00,32.5,30.7,30.28,South,172,0.0,2.0,93,0.00,,CLR,0.00,0.00,VWS V14.01,2013-03-11 10:23:00,
2013-03-11 06:28:00,32.5,30.7,30.28,West,273,0.0,3.0,93,0.00,,CLR,0.00,0.00,VWS V14.01,2013-03-11 10:28:00,
2013-03-11 06:33:00,32.5,30.7,30.28,WSW,241,0.0,3.0,93,0.00,,CLR,0.00,0.00,VWS V14.01,2013-03-11 10:33:00,
2013-03-11 06:38:00,32.5,30.7,30.28,SSW,213,1.0,4.0,93,0.00,,CLR,0.00,0.00,VWS V14.01,2013-03-11 10:38:00,
2013-03-11 06:43:00,32.5,30.7,30.28,SSW,213,1.0,1.0,93,0.00,,CLR,0.00,0.00,VWS V14.01,2013-03-11 10:43:00,
2013-03-11 06:48:00,32.6,30.8,30.28,SSW,213,0.0,2.0,93,0.00,,CLR,0.00,0.00,VWS V14.01,2013-03-11 10:48:00,
2013-03-11 06:53:00,32.5,30.7,30.28,SSW,213,0.0,2.0,93,0.00,,CLR,0.00,0.00,VWS V14.01,2013-03-11 10:53:00,
2013-03-11 06:58:00,32.5,30.4,30.28,South,190,1.0,2.0,92,0.00,,CLR,0.00,0.00,VWS V14.01,2013-03-11 10:58:00,
2013-03-11 07:04:00,32.5,30.7,30.28,SSW,196,0.0,3.0,93,0.00,,CLR,0.00,0.00,VWS V14.01,2013-03-11 11:04:00,
2013-03-11 07:09:00,32.5,30.7,30.28,SW,223,1.0,3.0,93,0.00,,CLR,0.00,5.00,VWS V14.01,2013-03-11 11:09:00,
2013-03-11 07:14:00,32.5,30.7,30.28,SW,223,1.0,1.0,93,0.00,,CLR,0.00,11.00,VWS V14.01,2013-03-11 11:14:00,
2013-03-11 07:19:00,32.5,30.4,30.28,South,171,0.0,3.0,92,0.00,,CLR,0.00,14.00,VWS V14.01,2013-03-11 11:19:00,
2013-03-11 07:24:00,32.5,30.4,30.28,South,171,0.0,0.0,92,0.00,,CLR,0.00,19.00,VWS V14.01,2013-03-11 11:24:00,
2013-03-11 07:29:00,32.4,30.3,30.27,ESE,112,2.0,2.0,92,0.00,,CLR,0.00,21.00,VWS V14.01,2013-03-11 11:29:00,
2013-03-11 07:34:00,32.5,30.4,30.28,South,173,0.0,2.0,92,0.00,,CLR,0.00,23.00,VWS V14.01,2013-03-11 11:34:00,
2013-03-11 07:39:00,32.5,30.7,30.28,South,173,0.0,2.0,93,0.00,,CLR,0.00,25.00,VWS V14.01,2013-03-11 11:39:00,
2013-03-11 07:44:00,32.5,30.4,30.27,South,173,0.0,1.0,92,0.00,,CLR,0.00,28.00,VWS V14.01,2013-03-11 11:44:00,
2013-03-11 07:49:00,32.5,30.4,30.27,South,173,0.0,2.0,92,0.00,,CLR,0.00,32.00,VWS V14.01,2013-03-11 11:49:00,
2013-03-11 07:54:00,32.4,30.3,30.28,South,173,0.0,1.0,92,0.00,,CLR,0.00,37.00,VWS V14.01,2013-03-11 11:54:00,
2013-03-11 07:59:00,32.4,30.3,30.28,South,173,1.0,2.0,92,0.00,,CLR,0.00,49.00,VWS V14.01,2013-03-11 11:59:00,
2013-03-11 08:04:00,32.5,30.7,30.28,South,173,0.0,1.0,93,0.00,,CLR,0.00,54.00,VWS V14.01,2013-03-11 12:04:00,
2013-03-11 08:09:00,32.7,30.9,30.28,South,173,0.0,1.0,93,0.00,,CLR,0.00,54.00,VWS V14.01,2013-03-11 12:09:00,
2013-03-11 08:14:00,32.8,30.7,30.28,South,173,0.0,1.0,92,0.00,,CLR,0.00,88.00,VWS V14.01,2013-03-11 12:14:00,
2013-03-11 08:19:00,33.0,30.9,30.28,South,173,0.0,1.0,92,0.00,,CLR,0.00,113.00,VWS V14.01,2013-03-11 12:19:00,
2013-03-11 08:24:00,33.4,31.3,30.28,South,173,0.0,2.0,92,0.00,,CLR,0.00,155.00,VWS V14.01,2013-03-11 12:24:00,
2013-03-11 08:29:00,33.9,31.8,30.28,SE,146,0.0,3.0,92,0.00,,CLR,0.00,97.00,VWS V14.01,2013-03-11 12:29:00,
2013-03-11 08:34:00,34.3,32.0,30.27,SSE,148,0.0,3.0,91,0.00,,CLR,0.00,193.00,VWS V14.01,2013-03-11 12:34:00,
2013-03-11 08:39:00,34.4,31.8,30.27,South,172,0.0,4.0,90,0.00,,CLR,0.00,134.00,VWS V14.01,2013-03-11 12:39:00,
2013-03-11 08:44:00,34.7,32.1,30.27,South,172,0.0,2.0,90,0.00,,CLR,0.00,77.00,VWS V14.01,2013-03-11 12:44:00,
2013-03-11 08:49:00,34.8,31.9,30.28,South,173,1.0,2.0,89,0.00,,CLR,0.00,62.00,VWS V14.01,2013-03-11 12:49:00,
2013-03-11 08:54:00,34.8,31.9,30.28,WSW,241,5.0,5.0,89,0.00,,CLR,0.00,137.00,VWS V14.01,2013-03-11 12:54:00,
2013-03-11 08:59:00,35.1,32.2,30.28,South,184,1.0,5.0,89,0.00,,CLR,0.00,297.00,VWS V14.01,2013-03-11 12:59:00,
2013-03-11 09:04:00,35.6,32.4,30.27,SE,138,0.0,3.0,88,0.00,,CLR,0.00,239.00,VWS V14.01,2013-03-11 13:04:00,
2013-03-11 09:09:00,36.3,32.8,30.27,SW,215,3.0,3.0,87,0.00,,CLR,0.00,272.00,VWS V14.01,2013-03-11 13:09:00,
2013-03-11 09:14:00,36.7,32.9,30.27,SSW,192,2.0,3.0,86,0.00,,CLR,0.00,142.00,VWS V14.01,2013-03-11 13:14:00,
2013-03-11 09:19:00,37.2,33.1,30.27,SSW,210,2.0,5.0,85,0.00,,CLR,0.00,248.00,VWS V14.01,2013-03-11 13:19:00,
2013-03-11 09:24:00,37.7,33.3,30.27,SW,217,3.0,3.0,84,0.00,,CLR,0.00,297.00,VWS V14.01,2013-03-11 13:24:00,
2013-03-11 09:29:00,38.0,33.3,30.27,SSW,212,1.0,4.0,83,0.00,,CLR,0.00,353.00,VWS V14.01,2013-03-11 13:29:00,
2013-03-11 09:34:00,38.3,33.3,30.27,SW,221,1.0,5.0,82,0.00,,CLR,0.00,401.00,VWS V14.01,2013-03-11 13:34:00,
2013-03-11 09:39:00,38.8,33.5,30.27,SW,217,0.0,5.0,81,0.00,,CLR,0.00,329.00,VWS V14.01,2013-03-11 13:39:00,
2013-03-11 09:44:00,39.3,33.7,30.27,SW,217,0.0,3.0,80,0.00,,CLR,0.00,237.00,VWS V14.01,2013-03-11 13:44:00,
2013-03-11 09:49:00,39.5,33.2,30.27,SW,232,1.0,6.0,78,0.00,,CLR,0.00,218.00,VWS V14.01,2013-03-11 13:49:00,
2013-03-11 09:54:00,39.6,33.3,30.27,SW,219,5.0,5.0,78,0.00,,CLR,0.00,450.00,VWS V14.01,2013-03-11 13:54:00,
2013-03-11 09:59:00,39.8,33.5,30.27,WSW,257,3.0,6.0,78,0.00,,CLR,0.00,462.00,VWS V14.01,2013-03-11 13:59:00,
2013-03-11 10:04:00,40.3,33.3,30.27,SSW,200,0.0,4.0,76,0.00,,CLR,0.00,397.00,VWS V14.01,2013-03-11 14:04:00,
2013-03-11 10:09:00,40.8,33.5,30.27,WSW,237,0.0,4.0,75,0.00,,CLR,0.00,540.00,VWS V14.01,2013-03-11 14:09:00,
2013-03-11 10:14:00,41.1,33.5,30.27,West,267,2.0,7.0,74,0.00,,CLR,0.00,594.00,VWS V14.01,2013-03-11 14:14:00,
2013-03-11 10:19:00,41.6,33.9,30.27,WSW,250,4.0,7.0,74,0.00,,CLR,0.00,666.00,VWS V14.01,2013-03-11 14:19:00,
2013-03-11 10:24:00,42.1,33.4,30.27,South,175,1.0,4.0,71,0.00,,CLR,0.00,403.00,VWS V14.01,2013-03-11 14:24:00,
2013-03-11 10:29:00,42.4,33.7,30.27,South,180,0.0,5.0,71,0.00,,CLR,0.00,738.00,VWS V14.01,2013-03-11 14:29:00,
2013-03-11 10:34:00,43.0,33.9,30.27,South,179,0.0,4.0,70,0.00,,CLR,0.00,795.00,VWS V14.01,2013-03-11 14:34:00,
2013-03-11 10:39:00,43.6,34.1,30.27,SE,140,2.0,5.0,69,0.00,,CLR,0.00,884.00,VWS V14.01,2013-03-11 14:39:00,
2013-03-11 10:44:00,44.1,33.9,30.27,SW,219,2.0,6.0,67,0.00,,CLR,0.00,540.00,VWS V14.01,2013-03-11 14:44:00,
2013-03-11 10:49:00,44.0,33.4,30.27,SSW,209,0.0,6.0,66,0.00,,CLR,0.00,694.00,VWS V14.01,2013-03-11 14:49:00,
2013-03-11 10:54:00,43.9,33.3,30.27,SW,226,3.0,6.0,66,0.00,,CLR,0.00,329.00,VWS V14.01,2013-03-11 14:54:00,
2013-03-11 10:59:00,43.5,33.3,30.27,SSE,162,0.0,6.0,67,0.00,,CLR,0.00,330.00,VWS V14.01,2013-03-11 14:59:00,
2013-03-11 11:04:00,43.2,33.4,30.27,South,172,1.0,6.0,68,0.00,,CLR,0.00,299.00,VWS V14.01,2013-03-11 15:04:00,
2013-03-11 11:09:00,43.2,33.4,30.27,SSE,167,0.0,6.0,68,0.00,,CLR,0.00,287.00,VWS V14.01,2013-03-11 15:09:00,
2013-03-11 11:14:00,43.4,33.2,30.27,SSW,206,2.0,4.0,67,0.00,,CLR,0.00,369.00,VWS V14.01,2013-03-11 15:14:00,
2013-03-11 11:19:00,43.6,33.4,30.27,SW,219,0.0,6.0,67,0.00,,CLR,0.00,482.00,VWS V14.01,2013-03-11 15:19:00,
2013-03-11 11:24:00,43.8,33.6,30.27,SW,217,2.0,6.0,67,0.00,,CLR,0.00,323.00,VWS V14.01,2013-03-11 15:24:00,
2013-03-11 11:29:00,43.9,33.7,30.27,SW,232,2.0,6.0,67,0.00,,CLR,0.00,330.00,VWS V14.01,2013-03-11 15:29:00,
2013-03-11 11:35:00,44.4,33.8,30.26,SSW,192,2.0,5.0,66,0.00,,CLR,0.00,599.00,VWS V14.01,2013-03-11 15:35:00,
2013-03-11 11:40:00,45.3,34.2,30.26,SW,221,1.0,5.0,65,0.00,,CLR,0.00,622.00,VWS V14.01,2013-03-11 15:40:00,
2013-03-11 11:45:00,46.2,34.3,30.26,SW,231,3.0,3.0,63,0.00,,CLR,0.00,679.00,VWS V14.01,2013-03-11 15:45:00,
2013-03-11 11:50:00,46.6,34.7,30.26,South,189,1.0,9.0,63,0.00,,CLR,0.00,582.00,VWS V14.01,2013-03-11 15:50:00,
2013-03-11 11:55:00,46.6,34.3,30.26,South,188,0.0,5.0,62,0.00,,CLR,0.00,510.00,VWS V14.01,2013-03-11 15:55:00,
2013-03-11 12:00:00,46.7,34.8,30.25,South,188,1.0,5.0,63,0.00,,CLR,0.00,436.00,VWS V14.01,2013-03-11 16:00:00,
2013-03-11 12:05:00,46.9,34.6,30.25,SSW,193,1.0,4.0,62,0.00,,CLR,0.00,443.00,VWS V14.01,2013-03-11 16:05:00,
2013-03-11 12:10:00,47.1,34.8,30.25,ESE,109,0.0,4.0,62,0.00,,CLR,0.00,717.00,VWS V14.01,2013-03-11 16:10:00,
2013-03-11 12:15:00,47.4,34.6,30.26,South,190,0.0,4.0,61,0.00,,CLR,0.00,420.00,VWS V14.01,2013-03-11 16:15:00,
2013-03-11 12:20:00,47.3,34.5,30.26,SW,222,2.0,6.0,61,0.00,,CLR,0.00,369.00,VWS V14.01,2013-03-11 16:20:00,
2013-03-11 12:25:00,47.0,34.7,30.26,SSW,212,0.0,4.0,62,0.00,,CLR,0.00,424.00,VWS V14.01,2013-03-11 16:25:00,
2013-03-11 12:30:00,47.3,34.5,30.26,SSE,160,2.0,4.0,61,0.00,,CLR,0.00,445.00,VWS V14.01,2013-03-11 16:30:00,
2013-03-11 12:35:00,47.3,34.5,30.25,SSW,201,2.0,5.0,61,0.00,,CLR,0.00,575.00,VWS V14.01,2013-03-11 16:35:00,
2013-03-11 12:40:00,48.0,34.8,30.25,SW,222,0.0,5.0,60,0.00,,CLR,0.00,754.00,VWS V14.01,2013-03-11 16:40:00,
2013-03-11 12:45:00,48.8,35.1,30.25,SSW,198,4.0,5.0,59,0.00,,CLR,0.00,494.00,VWS V14.01,2013-03-11 16:45:00,
2013-03-11 12:50:00,48.7,34.6,30.25,South,191,3.0,9.0,58,0.00,,CLR,0.00,582.00,VWS V14.01,2013-03-11 16:50:00,
2013-03-11 12:55:00,48.4,34.8,30.25,WSW,251,2.0,8.0,59,0.00,,CLR,0.00,575.00,VWS V14.01,2013-03-11 16:55:00,
2013-03-11 13:00:00,48.6,34.9,30.25,SSW,207,0.0,8.0,59,0.00,,CLR,0.00,759.00,VWS V14.01,2013-03-11 17:00:00,
2013-03-11 13:05:00,49.0,35.3,30.25,ESE,115,3.0,5.0,59,0.00,,CLR,0.00,791.00,VWS V14.01,2013-03-11 17:05:00,
2013-03-11 13:10:00,49.4,35.7,30.24,South,188,3.0,5.0,59,0.00,,CLR,0.00,591.00,VWS V14.01,2013-03-11 17:10:00,
2013-03-11 13:15:00,49.8,35.2,30.24,SW,219,2.0,5.0,57,0.00,,CLR,0.00,545.00,VWS V14.01,2013-03-11 17:15:00,
2013-03-11 13:20:00,49.9,34.8,30.24,South,187,1.0,2.0,56,0.00,,CLR,0.00,563.00,VWS V14.01,2013-03-11 17:20:00,
2013-03-11 13:25:00,50.0,35.4,30.23,South,176,0.0,4.0,57,0.00,,CLR,0.00,424.00,VWS V14.01,2013-03-11 17:25:00,
2013-03-11 13:30:00,50.3,35.2,30.23,SSE,163,2.0,2.0,56,0.00,,CLR,0.00,364.00,VWS V14.01,2013-03-11 17:30:00,
2013-03-11 13:35:00,50.6,35.0,30.23,SSE,163,1.0,3.0,55,0.00,,CLR,0.00,352.00,VWS V14.01,2013-03-11 17:35:00,
2013-03-11 13:40:00,50.7,34.7,30.22,South,190,0.0,1.0,54,0.00,,CLR,0.00,378.00,VWS V14.01,2013-03-11 17:40:00,
2013-03-11 13:45:00,50.4,34.4,30.22,South,180,2.0,9.0,54,0.00,,CLR,0.00,401.00,VWS V14.01,2013-03-11 17:45:00,
2013-03-11 13:50:00,50.1,34.1,30.22,SE,144,0.0,3.0,54,0.00,,CLR,0.00,434.00,VWS V14.01,2013-03-11 17:50:00,
2013-03-11 13:55:00,50.3,34.3,30.22,South,171,0.0,5.0,54,0.00,,CLR,0.00,373.00,VWS V14.01,2013-03-11 17:55:00,
2013-03-11 14:00:00,50.5,34.5,30.22,South,178,2.0,2.0,54,0.00,,CLR,0.00,348.00,VWS V14.01,2013-03-11 18:00:00,
2013-03-11 14:05:00,50.5,34.5,30.21,SSW,206,3.0,6.0,54,0.00,,FEW120,0.00,330.00,VWS V14.01,2013-03-11 18:05:00,
2013-03-11 14:10:00,50.3,34.3,30.21,SW,217,0.0,1.0,54,0.00,,FEW120,0.00,302.00,VWS V14.01,2013-03-11 18:10:00,
2013-03-11 14:15:00,50.3,34.8,30.21,SSE,162,0.0,3.0,55,0.00,,FEW120,0.00,309.00,VWS V14.01,2013-03-11 18:15:00,
2013-03-11 14:20:00,50.2,34.2,30.21,SSW,210,2.0,3.0,54,0.00,,FEW120,0.00,341.00,VWS V14.01,2013-03-11 18:20:00,
2013-03-11 14:25:00,50.3,34.3,30.21,South,185,2.0,4.0,54,0.00,,FEW120,0.00,378.00,VWS V14.01,2013-03-11 18:25:00,
2013-03-11 14:31:00,50.5,34.5,30.21,SE,130,2.0,2.0,54,0.00,,FEW120,0.00,374.00,VWS V14.01,2013-03-11 18:31:00,
2013-03-11 14:36:00,50.6,34.1,30.21,WSW,239,1.0,7.0,53,0.00,,FEW120,0.00,311.00,VWS V14.01,2013-03-11 18:36:00,
2013-03-11 14:41:00,50.5,34.5,30.20,SW,233,1.0,5.0,54,0.00,,FEW120,0.00,294.00,VWS V14.01,2013-03-11 18:41:00,
2013-03-11 14:46:00,50.4,34.4,30.21,SSE,151,2.0,5.0,54,0.00,,FEW120,0.00,301.00,VWS V14.01,2013-03-11 18:46:00,
2013-03-11 14:51:00,50.3,34.3,30.20,South,171,2.0,2.0,54,0.00,,FEW120,0.00,287.00,VWS V14.01,2013-03-11 18:51:00,
2013-03-11 14:56:00,50.2,34.2,30.20,SE,140,0.0,4.0,54,0.00,,FEW120,0.00,279.00,VWS V14.01,2013-03-11 18:56:00,
2013-03-11 15:01:00,50.3,34.3,30.20,ESE,102,1.0,1.0,54,0.00,,FEW120,0.00,272.00,VWS V14.01,2013-03-11 19:01:00,
2013-03-11 15:06:00,50.3,34.3,30.20,WSW,244,0.0,6.0,54,0.00,,SCT120,0.00,269.00,VWS V14.01,2013-03-11 19:06:00,
2013-03-11 15:11:00,50.3,34.3,30.20,WSW,241,3.0,4.0,54,0.00,,SCT120,0.00,283.00,VWS V14.01,2013-03-11 19:11:00,
2013-03-11 15:17:00,50.1,34.6,30.20,SW,227,2.0,4.0,55,0.00,,SCT120,0.00,320.00,VWS V14.01,2013-03-11 19:17:00,
2013-03-11 15:22:00,50.3,34.8,30.20,SSW,193,2.0,5.0,55,0.00,,SCT120,0.00,346.00,VWS V14.01,2013-03-11 19:22:00,
2013-03-11 15:27:00,50.3,34.3,30.20,SSW,203,0.0,5.0,54,0.00,,SCT120,0.00,320.00,VWS V14.01,2013-03-11 19:27:00,
2013-03-11 15:32:00,50.5,34.5,30.20,WSW,241,0.0,3.0,54,0.00,,SCT120,0.00,260.00,VWS V14.01,2013-03-11 19:32:00,
2013-03-11 15:37:00,50.5,34.5,30.20,South,189,1.0,5.0,54,0.00,,SCT120,0.00,206.00,VWS V14.01,2013-03-11 19:37:00,
2013-03-11 15:42:00,50.4,34.4,30.20,SSE,148,1.0,2.0,54,0.00,,SCT120,0.00,234.00,VWS V14.01,2013-03-11 19:42:00,
2013-03-11 15:47:00,50.3,34.3,30.20,South,173,1.0,4.0,54,0.00,,SCT120,0.00,220.00,VWS V14.01,2013-03-11 19:47:00,
2013-03-11 15:52:00,50.1,34.6,30.20,SW,223,0.0,3.0,55,0.00,,SCT120,0.00,204.00,VWS V14.01,2013-03-11 19:52:00,
2013-03-11 15:57:00,50.1,34.6,30.19,ESE,121,0.0,4.0,55,0.00,,SCT120,0.00,169.00,VWS V14.01,2013-03-11 19:57:00,
2013-03-11 16:02:00,50.2,34.7,30.19,WSW,247,0.0,5.0,55,0.00,,SCT120,0.00,172.00,VWS V14.01,2013-03-11 20:02:00,
2013-03-11 16:07:00,50.1,34.6,30.19,SSW,207,0.0,5.0,55,0.00,,BKN120,0.00,156.00,VWS V14.01,2013-03-11 20:07:00,
2013-03-11 16:12:00,50.0,34.5,30.19,SSW,207,0.0,2.0,55,0.00,,BKN120,0.00,137.00,VWS V14.01,2013-03-11 20:12:00,
2013-03-11 16:17:00,49.9,34.4,30.19,SSW,196,2.0,4.0,55,0.00,,BKN120,0.00,121.00,VWS V14.01,2013-03-11 20:17:00,
2013-03-11 16:22:00,49.9,34.8,30.19,SSE,150,0.0,3.0,56,0.00,,BKN120,0.00,109.00,VWS V14.01,2013-03-11 20:22:00,
2013-03-11 16:27:00,49.9,34.4,30.19,SSW,202,0.0,4.0,55,0.00,,BKN120,0.00,104.00,VWS V14.01,2013-03-11 20:27:00,
2013-03-11 16:32:00,49.9,34.4,30.18,SW,228,2.0,2.0,55,0.00,,BKN120,0.00,105.00,VWS V14.01,2013-03-11 20:32:00,
2013-03-11 16:37:00,49.8,34.3,30.18,SW,223,0.0,2.0,55,0.00,,BKN120,0.00,118.00,VWS V14.01,2013-03-11 20:37:00,
2013-03-11 16:43:00,49.8,34.8,30.18,South,171,0.0,3.0,56,0.00,,BKN120,0.00,93.00,VWS V14.01,2013-03-11 20:43:00,
2013-03-11 16:48:00,49.8,34.8,30.18,South,171,0.0,3.0,56,0.00,,BKN120,0.00,83.00,VWS V14.01,2013-03-11 20:48:00,
2013-03-11 16:53:00,49.8,35.2,30.18,SE,146,1.0,3.0,57,0.00,,BKN120,0.00,74.00,VWS V14.01,2013-03-11 20:53:00,
2013-03-11 16:58:00,49.8,34.8,30.18,SW,236,0.0,3.0,56,0.00,,BKN120,0.00,79.00,VWS V14.01,2013-03-11 20:58:00,
2013-03-11 17:03:00,49.7,34.7,30.18,South,184,0.0,4.0,56,0.00,,BKN120,0.00,81.00,VWS V14.01,2013-03-11 21:03:00,
2013-03-11 17:08:00,49.6,34.6,30.17,SSE,159,1.0,4.0,56,0.00,,BKN120,0.00,84.00,VWS V14.01,2013-03-11 21:08:00,
2013-03-11 17:13:00,49.6,35.0,30.17,SSW,193,0.0,2.0,57,0.00,,BKN120,0.00,70.00,VWS V14.01,2013-03-11 21:13:00,
2013-03-11 17:18:00,49.6,35.0,30.17,SSW,193,0.0,2.0,57,0.00,,BKN120,0.00,60.00,VWS V14.01,2013-03-11 21:18:00,
2013-03-11 17:23:00,49.5,34.9,30.17,SW,234,0.0,4.0,57,0.00,,BKN120,0.00,42.00,VWS V14.01,2013-03-11 21:23:00,
2013-03-11 17:28:00,49.4,34.8,30.17,SSE,165,0.0,4.0,57,0.00,,BKN120,0.00,35.00,VWS V14.01,2013-03-11 21:28:00,
2013-03-11 17:33:00,49.4,35.3,30.17,SSE,165,0.0,1.0,58,0.00,,BKN120,0.00,35.00,VWS V14.01,2013-03-11 21:33:00,
2013-03-11 17:38:00,49.2,35.1,30.18,SSE,165,0.0,1.0,58,0.00,,BKN120,0.00,35.00,VWS V14.01,2013-03-11 21:38:00,
2013-03-11 17:43:00,49.2,35.1,30.18,SSE,165,0.0,1.0,58,0.00,,BKN120,0.00,33.00,VWS V14.01,2013-03-11 21:43:00,
2013-03-11 17:48:00,49.0,34.9,30.17,SSE,165,0.0,1.0,58,0.00,,BKN120,0.00,33.00,VWS V14.01,2013-03-11 21:48:00,
2013-03-11 17:53:00,48.9,35.2,30.17,SSE,165,0.0,0.0,59,0.00,,BKN120,0.00,30.00,VWS V14.01,2013-03-11 21:53:00,
2013-03-11 17:58:00,48.7,35.0,30.17,SSE,165,0.0,0.0,59,0.00,,BKN120,0.00,26.00,VWS V14.01,2013-03-11 21:58:00,
2013-03-11 18:03:00,48.5,35.3,30.17,SSE,165,0.0,2.0,60,0.00,,BKN110,0.00,21.00,VWS V14.01,2013-03-11 22:03:00,
2013-03-11 18:08:00,48.3,35.5,30.17,SSE,165,0.0,2.0,61,0.00,,BKN110,0.00,21.00,VWS V14.01,2013-03-11 22:08:00,
2013-03-11 18:13:00,48.1,35.7,30.17,South,182,2.0,3.0,62,0.00,,BKN110,0.00,19.00,VWS V14.01,2013-03-11 22:13:00,
2013-03-11 18:18:00,47.9,35.9,30.17,South,184,1.0,3.0,63,0.00,,BKN110,0.00,18.00,VWS V14.01,2013-03-11 22:18:00,
2013-03-11 18:23:00,47.7,36.1,30.17,South,184,0.0,2.0,64,0.00,,BKN110,0.00,14.00,VWS V14.01,2013-03-11 22:23:00,
2013-03-11 18:28:00,47.6,36.4,30.17,South,184,0.0,2.0,65,0.00,,BKN110,0.00,12.00,VWS V14.01,2013-03-11 22:28:00,
2013-03-11 18:33:00,47.5,37.5,30.17,South,184,2.0,3.0,68,0.00,,BKN110,0.00,9.00,VWS V14.01,2013-03-11 22:33:00,
2013-03-11 18:38:00,47.6,37.6,30.17,SSW,198,0.0,3.0,68,0.00,,BKN110,0.00,5.00,VWS V14.01,2013-03-11 22:38:00,
2013-03-11 18:43:00,47.6,38.0,30.17,South,175,0.0,3.0,69,0.00,,BKN110,0.00,0.00,VWS V14.01,2013-03-11 22:43:00,
2013-03-11 18:49:00,47.4,38.1,30.17,South,175,0.0,3.0,70,0.00,,BKN110,0.00,0.00,VWS V14.01,2013-03-11 22:49:00,
2013-03-11 18:54:00,47.0,38.1,30.17,SE,132,0.0,2.0,71,0.00,,BKN110,0.00,0.00,VWS V14.01,2013-03-11 22:54:00,
2013-03-11 18:59:00,46.7,38.2,30.16,SE,133,0.0,2.0,72,0.00,,BKN110,0.00,0.00,VWS V14.01,2013-03-11 22:59:00,
2013-03-11 19:04:00,46.6,38.4,30.17,South,171,3.0,3.0,73,0.00,,BKN120,0.00,0.00,VWS V14.01,2013-03-11 23:04:00,
2013-03-11 19:09:00,46.4,38.2,30.17,South,170,0.0,3.0,73,0.00,,BKN120,0.00,0.00,VWS V14.01,2013-03-11 23:09:00,
2013-03-11 19:14:00,46.3,38.5,30.17,South,171,0.0,2.0,74,0.00,,BKN120,0.00,0.00,VWS V14.01,2013-03-11 23:14:00,
2013-03-11 19:19:00,46.1,38.6,30.17,South,190,0.0,2.0,75,0.00,,BKN120,0.00,0.00,VWS V14.01,2013-03-11 23:19:00,
2013-03-11 19:24:00,46.1,38.6,30.17,South,178,0.0,6.0,75,0.00,,BKN120,0.00,0.00,VWS V14.01,2013-03-11 23:24:00,
2013-03-11 19:29:00,45.9,38.8,30.17,SW,214,3.0,6.0,76,0.00,,BKN120,0.00,0.00,VWS V14.01,2013-03-11 23:29:00,
2013-03-11 19:34:00,45.8,38.7,30.17,SSE,149,2.0,8.0,76,0.00,,BKN120,0.00,0.00,VWS V14.01,2013-03-11 23:34:00,
2013-03-11 19:39:00,45.6,38.5,30.18,SSE,147,0.0,8.0,76,0.00,,BKN120,0.00,0.00,VWS V14.01,2013-03-11 23:39:00,
2013-03-11 19:44:00,45.5,38.7,30.18,SE,126,2.0,7.0,77,0.00,,BKN120,0.00,0.00,VWS V14.01,2013-03-11 23:44:00,
2013-03-11 19:49:00,45.4,38.6,30.18,SSE,157,1.0,7.0,77,0.00,,BKN120,0.00,0.00,VWS V14.01,2013-03-11 23:49:00,
2013-03-11 19:54:00,45.2,38.8,30.18,SSE,153,0.0,4.0,78,0.00,,BKN120,0.00,0.00,VWS V14.01,2013-03-11 23:54:00,
2013-03-11 19:59:00,45.0,38.6,30.17,SE,139,1.0,5.0,78,0.00,,BKN120,0.00,0.00,VWS V14.01,2013-03-11 23:59:00,
2013-03-11 20:04:00,44.7,38.6,30.17,SSW,194,0.0,6.0,79,0.00,,FEW120,0.00,0.00,VWS V14.01,2013-03-12 00:04:00,
2013-03-11 20:09:00,44.6,38.5,30.17,ESE,123,0.0,6.0,79,0.00,,FEW120,0.00,0.00,VWS V14.01,2013-03-12 00:09:00,
2013-03-11 20:14:00,44.3,38.5,30.17,South,179,1.0,4.0,80,0.00,,FEW120,0.00,0.00,VWS V14.01,2013-03-12 00:14:00,
2013-03-11 20:19:00,44.1,38.3,30.17,ESE,108,3.0,4.0,80,0.00,,FEW120,0.00,0.00,VWS V14.01,2013-03-12 00:19:00,
2013-03-11 20:24:00,44.0,38.2,30.17,SSE,168,1.0,3.0,80,0.00,,FEW120,0.00,0.00,VWS V14.01,2013-03-12 00:24:00,
2013-03-11 20:29:00,43.8,38.4,30.17,South,190,2.0,5.0,81,0.00,,FEW120,0.00,0.00,VWS V14.01,2013-03-12 00:29:00,
2013-03-11 20:34:00,43.8,38.7,30.17,SSE,161,1.0,4.0,82,0.00,,FEW120,0.00,0.00,VWS V14.01,2013-03-12 00:34:00,
2013-03-11 20:39:00,43.8,39.0,30.18,East,92,1.0,4.0,83,0.00,,FEW120,0.00,0.00,VWS V14.01,2013-03-12 00:39:00,
2013-03-11 20:44:00,43.7,38.9,30.17,SE,127,3.0,7.0,83,0.00,,FEW120,0.00,0.00,VWS V14.01,2013-03-12 00:44:00,
2013-03-11 20:49:00,43.6,38.5,30.18,South,186,2.0,7.0,82,0.00,,FEW120,0.00,0.00,VWS V14.01,2013-03-12 00:49:00,
2013-03-11 20:54:00,43.4,38.6,30.18,SSE,157,0.0,2.0,83,0.00,,,0.00,0.00,VWS V14.01,2013-03-12 00:54:00,
2013-03-11 20:59:00,43.3,38.8,30.18,South,174,0.0,4.0,84,0.00,,,0.00,0.00,VWS V14.01,2013-03-12 00:59:00,
2013-03-11 21:04:00,43.1,38.6,30.18,SE,144,0.0,4.0,84,0.00,,CLR,0.00,0.00,VWS V14.01,2013-03-12 01:04:00,
2013-03-11 21:09:00,42.9,38.4,30.18,NE,34,0.0,4.0,84,0.00,,CLR,0.00,0.00,VWS V14.01,2013-03-12 01:09:00,
2013-03-11 21:14:00,42.7,38.2,30.18,SSE,155,0.0,2.0,84,0.00,,CLR,0.00,0.00,VWS V14.01,2013-03-12 01:14:00,
2013-03-11 21:19:00,42.5,38.3,30.17,South,180,1.0,3.0,85,0.00,,CLR,0.00,0.00,VWS V14.01,2013-03-12 01:19:00,
2013-03-11 21:24:00,42.3,38.4,30.18,South,190,0.0,3.0,86,0.00,,CLR,0.00,0.00,VWS V14.01,2013-03-12 01:24:00,
2013-03-11 21:29:00,42.1,37.9,30.17,South,189,0.0,3.0,85,0.00,,CLR,0.00,0.00,VWS V14.01,2013-03-12 01:29:00,
2013-03-11 21:34:00,42.0,38.4,30.17,SW,221,1.0,4.0,87,0.00,,CLR,0.00,0.00,VWS V14.01,2013-03-12 01:34:00,
2013-03-11 21:39:00,41.9,38.0,30.17,South,175,1.0,5.0,86,0.00,,CLR,0.00,0.00,VWS V14.01,2013-03-12 01:39:00,
2013-03-11 21:44:00,41.9,38.3,30.17,South,190,0.0,5.0,87,0.00,,CLR,0.00,0.00,VWS V14.01,2013-03-12 01:44:00,
2013-03-11 21:49:00,41.9,38.3,30.17,South,184,1.0,5.0,87,0.00,,CLR,0.00,0.00,VWS V14.01,2013-03-12 01:49:00,
2013-03-11 21:54:00,41.8,38.2,30.17,SSW,194,3.0,4.0,87,0.00,,CLR,0.00,0.00,VWS V14.01,2013-03-12 01:54:00,
2013-03-11 21:59:00,41.7,38.1,30.17,SE,141,0.0,4.0,87,0.00,,CLR,0.00,0.00,VWS V14.01,2013-03-12 01:59:00,
2013-03-11 22:04:00,41.6,38.3,30.17,South,170,2.0,3.0,88,0.00,,CLR,0.00,0.00,VWS V14.01,2013-03-12 02:04:00,
2013-03-11 22:09:00,41.6,38.3,30.17,South,191,0.0,4.0,88,0.00,,CLR,0.00,0.00,VWS V14.01,2013-03-12 02:09:00,
2013-03-11 22:14:00,41.6,38.3,30.17,SE,135,0.0,3.0,88,0.00,,CLR,0.00,0.00,VWS V14.01,2013-03-12 02:14:00,
2013-03-11 22:19:00,41.6,38.6,30.17,SSE,154,0.0,4.0,89,0.00,,CLR,0.00,0.00,VWS V14.01,2013-03-12 02:19:00,
2013-03-11 22:24:00,41.6,38.3,30.17,SSE,154,0.0,2.0,88,0.00,,CLR,0.00,0.00,VWS V14.01,2013-03-12 02:24:00,
2013-03-11 22:29:00,41.5,38.2,30.17,ESE,119,2.0,2.0,88,0.00,,CLR,0.00,0.00,VWS V14.01,2013-03-12 02:29:00,
2013-03-11 22:34:00,41.4,38.4,30.17,ESE,123,0.0,3.0,89,0.00,,BKN021,0.00,0.00,VWS V14.01,2013-03-12 02:34:00,
2013-03-11 22:40:00,41.3,38.3,30.17,ESE,123,0.0,3.0,89,0.00,,BKN021,0.00,0.00,VWS V14.01,2013-03-12 02:40:00,
2013-03-11 22:45:00,41.3,38.3,30.16,South,176,2.0,3.0,89,0.00,,BKN021,0.00,0.00,VWS V14.01,2013-03-12 02:45:00,
2013-03-11 22:50:00,41.2,38.2,30.16,South,176,0.0,3.0,89,0.00,,BKN021,0.00,0.00,VWS V14.01,2013-03-12 02:50:00,
2013-03-11 22:55:00,41.2,38.5,30.16,South,176,0.0,2.0,90,0.00,,BKN021,0.00,0.00,VWS V14.01,2013-03-12 02:55:00,
2013-03-11 23:00:00,41.1,38.4,30.16,South,176,0.0,2.0,90,0.00,,BKN021,0.00,0.00,VWS V14.01,2013-03-12 03:00:00,
2013-03-11 23:05:00,41.0,38.3,30.16,SSE,155,0.0,5.0,90,0.00,,BKN021,0.00,0.00,VWS V14.01,2013-03-12 03:05:00,
2013-03-11 23:10:00,40.8,38.1,30.16,SSE,155,0.0,5.0,90,0.00,,BKN021,0.00,0.00,VWS V14.01,2013-03-12 03:10:00,
2013-03-11 23:15:00,40.6,37.9,30.16,South,182,0.0,1.0,90,0.00,,BKN021,0.00,0.00,VWS V14.01,2013-03-12 03:15:00,
2013-03-11 23:20:00,40.5,38.1,30.17,SSW,198,1.0,2.0,91,0.00,,BKN021,0.00,0.00,VWS V14.01,2013-03-12 03:20:00,
2013-03-11 23:25:00,40.5,38.1,30.16,SSW,198,0.0,1.0,91,0.00,,BKN021,0.00,0.00,VWS V14.01,2013-03-12 03:25:00,
2013-03-11 23:30:00,40.3,37.9,30.17,SSW,198,0.0,1.0,91,0.00,,BKN021,0.00,0.00,VWS V14.01,2013-03-12 03:30:00,
2013-03-11 23:35:00,40.1,37.7,30.17,SSW,198,0.0,2.0,91,0.00,,BKN021,0.00,0.00,VWS V14.01,2013-03-12 03:35:00,
2013-03-11 23:40:00,39.9,37.5,30.17,SSW,198,0.0,2.0,91,0.00,,BKN021,0.00,0.00,VWS V14.01,2013-03-12 03:40:00,
2013-03-11 23:45:00,39.7,37.6,30.17,SSW,198,0.0,1.0,92,0.00,,BKN021,0.00,0.00,VWS V14.01,2013-03-12 03:45:00,
2013-03-11 23:50:00,39.6,37.5,30.17,SSW,198,0.0,2.0,92,0.00,,BKN021,0.00,0.00,VWS V14.01,2013-03-12 03:50:00,
2013-03-11 23:55:00,39.5,37.4,30.17,SSW,198,0.0,1.0,92,0.00,,BKN021,0.00,0.00,VWS V14.01,2013-03-12 03:55:00,